sensor_id;sensor_type;location;lat;lon;timestamp;temperature;humidity
8400;DHT22;4237;47.030;15.396;2023-02-04T00:01:39;5.90;99.90
8400;DHT22;4237;47.030;15.396;2023-02-04T00:04:08;5.80;99.90
8400;DHT22;4237;47.030;15.396;2023-02-04T00:06:36;5.70;99.90
8400;DHT22;4237;47.030;15.396;2023-02-04T00:09:05;5.60;99.90
8400;DHT22;4237;47.030;15.396;2023-02-04T00:11:33;5.50;99.90
8400;DHT22;4237;47.030;15.396;2023-02-04T00:14:02;5.50;99.90
8400;DHT22;4237;47.030;15.396;2023-02-04T00:16:31;5.50;99.90
8400;DHT22;4237;47.030;15.396;2023-02-04T00:18:59;5.50;99.90
8400;DHT22;4237;47.030;15.396;2023-02-04T00:21:28;5.40;99.90
8400;DHT22;4237;47.030;15.396;2023-02-04T00:23:56;5.40;99.90
8400;DHT22;4237;47.030;15.396;2023-02-04T00:26:25;5.30;99.90
8400;DHT22;4237;47.030;15.396;2023-02-04T00:28:54;5.10;99.90
8400;DHT22;4237;47.030;15.396;2023-02-04T00:31:22;5.20;99.90
8400;DHT22;4237;47.030;15.396;2023-02-04T00:33:51;5.20;99.90
8400;DHT22;4237;47.030;15.396;2023-02-04T00:36:20;5.00;99.90
8400;DHT22;4237;47.030;15.396;2023-02-04T00:38:49;4.90;99.90
8400;DHT22;4237;47.030;15.396;2023-02-04T00:41:17;4.70;99.90
8400;DHT22;4237;47.030;15.396;2023-02-04T00:43:46;4.40;99.90
8400;DHT22;4237;47.030;15.396;2023-02-04T00:46:15;4.60;99.90
8400;DHT22;4237;47.030;15.396;2023-02-04T00:48:43;4.30;99.90
8400;DHT22;4237;47.030;15.396;2023-02-04T00:51:12;4.20;99.90
8400;DHT22;4237;47.030;15.396;2023-02-04T00:53:40;4.40;99.90
8400;DHT22;4237;47.030;15.396;2023-02-04T00:56:09;4.30;99.90
8400;DHT22;4237;47.030;15.396;2023-02-04T00:58:38;4.10;99.90
8400;DHT22;4237;47.030;15.396;2023-02-04T01:01:07;3.90;99.90
8400;DHT22;4237;47.030;15.396;2023-02-04T01:03:35;3.70;99.90
8400;DHT22;4237;47.030;15.396;2023-02-04T01:06:04;3.60;99.90
8400;DHT22;4237;47.030;15.396;2023-02-04T01:08:33;3.50;99.90
8400;DHT22;4237;47.030;15.396;2023-02-04T01:11:01;3.50;99.90
8400;DHT22;4237;47.030;15.396;2023-02-04T01:13:30;3.40;99.90
8400;DHT22;4237;47.030;15.396;2023-02-04T01:15:59;3.30;99.90
8400;DHT22;4237;47.030;15.396;2023-02-04T01:18:27;3.30;99.90
8400;DHT22;4237;47.030;15.396;2023-02-04T01:20:56;3.60;99.90
8400;DHT22;4237;47.030;15.396;2023-02-04T01:23:24;3.60;99.90
8400;DHT22;4237;47.030;15.396;2023-02-04T01:25:53;3.90;99.90
8400;DHT22;4237;47.030;15.396;2023-02-04T01:28:22;4.10;99.90
8400;DHT22;4237;47.030;15.396;2023-02-04T01:30:50;4.10;99.90
8400;DHT22;4237;47.030;15.396;2023-02-04T01:33:19;4.50;99.90
8400;DHT22;4237;47.030;15.396;2023-02-04T01:35:48;4.70;99.90
8400;DHT22;4237;47.030;15.396;2023-02-04T01:38:16;4.90;99.90
8400;DHT22;4237;47.030;15.396;2023-02-04T01:40:45;4.70;99.90
8400;DHT22;4237;47.030;15.396;2023-02-04T01:43:14;4.80;99.90
8400;DHT22;4237;47.030;15.396;2023-02-04T01:45:45;4.80;99.90
8400;DHT22;4237;47.030;15.396;2023-02-04T01:48:14;4.70;99.90
8400;DHT22;4237;47.030;15.396;2023-02-04T01:50:54;4.50;99.90
8400;DHT22;4237;47.030;15.396;2023-02-04T01:53:24;4.50;99.90
8400;DHT22;4237;47.030;15.396;2023-02-04T01:55:54;4.20;99.90
8400;DHT22;4237;47.030;15.396;2023-02-04T01:58:22;4.30;99.90
8400;DHT22;4237;47.030;15.396;2023-02-04T02:00:51;4.30;99.90
8400;DHT22;4237;47.030;15.396;2023-02-04T02:03:21;4.30;99.90
8400;DHT22;4237;47.030;15.396;2023-02-04T02:05:51;4.30;99.90
8400;DHT22;4237;47.030;15.396;2023-02-04T02:08:21;4.40;99.90
8400;DHT22;4237;47.030;15.396;2023-02-04T02:10:50;4.30;99.90
8400;DHT22;4237;47.030;15.396;2023-02-04T02:13:19;4.20;99.90
8400;DHT22;4237;47.030;15.396;2023-02-04T02:15:48;4.00;99.90
8400;DHT22;4237;47.030;15.396;2023-02-04T02:18:17;3.90;99.90
8400;DHT22;4237;47.030;15.396;2023-02-04T02:20:46;3.90;99.90
8400;DHT22;4237;47.030;15.396;2023-02-04T02:26:09;4.40;99.90
8400;DHT22;4237;47.030;15.396;2023-02-04T02:28:37;4.40;99.90
8400;DHT22;4237;47.030;15.396;2023-02-04T02:31:06;4.50;99.90
8400;DHT22;4237;47.030;15.396;2023-02-04T02:33:36;4.60;99.90
8400;DHT22;4237;47.030;15.396;2023-02-04T02:36:05;4.70;99.90
8400;DHT22;4237;47.030;15.396;2023-02-04T02:38:34;4.50;99.90
8400;DHT22;4237;47.030;15.396;2023-02-04T02:41:04;4.50;99.90
8400;DHT22;4237;47.030;15.396;2023-02-04T02:43:32;4.70;99.90
8400;DHT22;4237;47.030;15.396;2023-02-04T02:46:02;4.70;99.90
8400;DHT22;4237;47.030;15.396;2023-02-04T02:48:31;4.70;99.90
8400;DHT22;4237;47.030;15.396;2023-02-04T02:51:00;4.70;99.90
8400;DHT22;4237;47.030;15.396;2023-02-04T02:53:29;4.50;99.90
8400;DHT22;4237;47.030;15.396;2023-02-04T02:55:58;4.50;99.90
8400;DHT22;4237;47.030;15.396;2023-02-04T02:58:33;4.40;99.90
8400;DHT22;4237;47.030;15.396;2023-02-04T03:01:05;4.50;99.90
8400;DHT22;4237;47.030;15.396;2023-02-04T03:03:37;4.40;99.90
8400;DHT22;4237;47.030;15.396;2023-02-04T03:06:18;4.50;99.90
8400;DHT22;4237;47.030;15.396;2023-02-04T03:08:48;4.60;99.90
8400;DHT22;4237;47.030;15.396;2023-02-04T03:11:18;4.50;99.90
8400;DHT22;4237;47.030;15.396;2023-02-04T03:13:47;4.70;99.90
8400;DHT22;4237;47.030;15.396;2023-02-04T03:16:35;4.60;99.90
8400;DHT22;4237;47.030;15.396;2023-02-04T03:19:06;4.60;99.90
8400;DHT22;4237;47.030;15.396;2023-02-04T03:21:35;4.70;99.90
8400;DHT22;4237;47.030;15.396;2023-02-04T03:24:05;4.80;99.90
8400;DHT22;4237;47.030;15.396;2023-02-04T03:26:34;4.80;99.90
8400;DHT22;4237;47.030;15.396;2023-02-04T03:29:07;4.70;99.90
8400;DHT22;4237;47.030;15.396;2023-02-04T03:31:36;4.60;99.90
8400;DHT22;4237;47.030;15.396;2023-02-04T03:34:05;4.80;99.90
8400;DHT22;4237;47.030;15.396;2023-02-04T03:36:34;4.80;99.90
8400;DHT22;4237;47.030;15.396;2023-02-04T03:39:03;4.70;99.90
8400;DHT22;4237;47.030;15.396;2023-02-04T03:41:32;4.70;99.90
8400;DHT22;4237;47.030;15.396;2023-02-04T03:44:00;4.60;99.90
8400;DHT22;4237;47.030;15.396;2023-02-04T03:46:29;4.70;99.90
8400;DHT22;4237;47.030;15.396;2023-02-04T03:48:57;4.90;99.90
8400;DHT22;4237;47.030;15.396;2023-02-04T03:51:26;5.00;99.90
8400;DHT22;4237;47.030;15.396;2023-02-04T03:53:54;5.00;99.90
8400;DHT22;4237;47.030;15.396;2023-02-04T03:56:23;5.20;99.90
8400;DHT22;4237;47.030;15.396;2023-02-04T03:58:52;5.30;99.90
8400;DHT22;4237;47.030;15.396;2023-02-04T04:01:20;5.30;99.90
8400;DHT22;4237;47.030;15.396;2023-02-04T04:03:49;5.30;99.90
8400;DHT22;4237;47.030;15.396;2023-02-04T04:06:17;5.40;99.90
8400;DHT22;4237;47.030;15.396;2023-02-04T04:08:46;5.50;99.90
8400;DHT22;4237;47.030;15.396;2023-02-04T04:11:15;5.60;99.90
8400;DHT22;4237;47.030;15.396;2023-02-04T04:13:43;5.50;99.90
8400;DHT22;4237;47.030;15.396;2023-02-04T04:16:12;5.50;99.90
8400;DHT22;4237;47.030;15.396;2023-02-04T04:18:41;5.50;99.90
8400;DHT22;4237;47.030;15.396;2023-02-04T04:21:09;5.50;99.90
8400;DHT22;4237;47.030;15.396;2023-02-04T04:23:38;5.60;99.90
8400;DHT22;4237;47.030;15.396;2023-02-04T04:26:06;5.60;99.90
8400;DHT22;4237;47.030;15.396;2023-02-04T04:28:35;5.60;99.90
8400;DHT22;4237;47.030;15.396;2023-02-04T04:31:03;5.60;99.90
8400;DHT22;4237;47.030;15.396;2023-02-04T04:33:32;5.50;99.90
8400;DHT22;4237;47.030;15.396;2023-02-04T04:36:01;5.50;99.90
8400;DHT22;4237;47.030;15.396;2023-02-04T04:38:29;5.50;99.90
8400;DHT22;4237;47.030;15.396;2023-02-04T04:40:58;5.50;99.90
8400;DHT22;4237;47.030;15.396;2023-02-04T04:43:26;5.40;99.90
8400;DHT22;4237;47.030;15.396;2023-02-04T04:45:55;5.40;99.90
8400;DHT22;4237;47.030;15.396;2023-02-04T04:48:24;5.30;99.90
8400;DHT22;4237;47.030;15.396;2023-02-04T04:50:52;5.20;99.90
8400;DHT22;4237;47.030;15.396;2023-02-04T04:53:21;5.20;99.90
8400;DHT22;4237;47.030;15.396;2023-02-04T04:55:49;5.20;99.90
8400;DHT22;4237;47.030;15.396;2023-02-04T04:58:18;5.10;99.90
8400;DHT22;4237;47.030;15.396;2023-02-04T05:00:47;5.20;99.90
8400;DHT22;4237;47.030;15.396;2023-02-04T05:03:15;5.10;99.90
8400;DHT22;4237;47.030;15.396;2023-02-04T05:05:44;5.10;99.90
8400;DHT22;4237;47.030;15.396;2023-02-04T05:08:12;5.20;99.90
8400;DHT22;4237;47.030;15.396;2023-02-04T05:10:43;5.10;99.90
8400;DHT22;4237;47.030;15.396;2023-02-04T05:13:12;5.10;99.90
8400;DHT22;4237;47.030;15.396;2023-02-04T05:15:41;5.20;99.90
8400;DHT22;4237;47.030;15.396;2023-02-04T05:18:10;5.20;99.90
8400;DHT22;4237;47.030;15.396;2023-02-04T05:20:38;5.20;99.90
8400;DHT22;4237;47.030;15.396;2023-02-04T05:23:07;5.20;99.90
8400;DHT22;4237;47.030;15.396;2023-02-04T05:25:35;5.30;99.90
8400;DHT22;4237;47.030;15.396;2023-02-04T05:28:04;5.30;99.90
8400;DHT22;4237;47.030;15.396;2023-02-04T05:30:33;5.30;99.90
8400;DHT22;4237;47.030;15.396;2023-02-04T05:33:02;5.40;99.90
8400;DHT22;4237;47.030;15.396;2023-02-04T05:35:30;5.50;99.90
8400;DHT22;4237;47.030;15.396;2023-02-04T05:37:59;5.40;99.90
8400;DHT22;4237;47.030;15.396;2023-02-04T05:40:27;5.40;99.90
8400;DHT22;4237;47.030;15.396;2023-02-04T05:42:56;5.40;99.90
8400;DHT22;4237;47.030;15.396;2023-02-04T05:45:24;5.30;99.90
8400;DHT22;4237;47.030;15.396;2023-02-04T05:47:53;5.30;99.90
8400;DHT22;4237;47.030;15.396;2023-02-04T05:50:22;5.30;99.90
8400;DHT22;4237;47.030;15.396;2023-02-04T05:52:50;5.30;99.90
8400;DHT22;4237;47.030;15.396;2023-02-04T05:55:19;5.30;99.90
8400;DHT22;4237;47.030;15.396;2023-02-04T05:57:47;5.30;99.90
8400;DHT22;4237;47.030;15.396;2023-02-04T06:00:16;5.40;99.90
8400;DHT22;4237;47.030;15.396;2023-02-04T06:02:45;5.30;99.90
8400;DHT22;4237;47.030;15.396;2023-02-04T06:05:13;5.20;99.90
8400;DHT22;4237;47.030;15.396;2023-02-04T06:07:42;5.10;99.90
8400;DHT22;4237;47.030;15.396;2023-02-04T06:10:11;5.20;99.90
8400;DHT22;4237;47.030;15.396;2023-02-04T06:12:39;5.20;99.90
8400;DHT22;4237;47.030;15.396;2023-02-04T06:15:08;5.20;99.90
8400;DHT22;4237;47.030;15.396;2023-02-04T06:17:38;5.30;99.90
8400;DHT22;4237;47.030;15.396;2023-02-04T06:20:09;5.20;99.90
8400;DHT22;4237;47.030;15.396;2023-02-04T06:22:38;5.20;99.90
8400;DHT22;4237;47.030;15.396;2023-02-04T06:25:07;5.10;99.90
8400;DHT22;4237;47.030;15.396;2023-02-04T06:27:36;5.10;99.90
8400;DHT22;4237;47.030;15.396;2023-02-04T06:30:05;5.10;99.90
8400;DHT22;4237;47.030;15.396;2023-02-04T06:32:34;5.10;99.90
8400;DHT22;4237;47.030;15.396;2023-02-04T06:35:03;5.10;99.90
8400;DHT22;4237;47.030;15.396;2023-02-04T06:37:32;5.10;99.90
8400;DHT22;4237;47.030;15.396;2023-02-04T06:40:00;5.00;99.90
8400;DHT22;4237;47.030;15.396;2023-02-04T06:42:29;5.00;99.90
8400;DHT22;4237;47.030;15.396;2023-02-04T06:44:58;5.00;99.90
8400;DHT22;4237;47.030;15.396;2023-02-04T06:47:27;5.10;99.90
8400;DHT22;4237;47.030;15.396;2023-02-04T06:49:57;5.10;99.90
8400;DHT22;4237;47.030;15.396;2023-02-04T06:52:26;5.10;99.90
8400;DHT22;4237;47.030;15.396;2023-02-04T06:54:55;5.20;99.90
8400;DHT22;4237;47.030;15.396;2023-02-04T06:57:23;5.30;99.90
8400;DHT22;4237;47.030;15.396;2023-02-04T06:59:52;5.20;99.90
8400;DHT22;4237;47.030;15.396;2023-02-04T07:02:21;5.20;99.90
8400;DHT22;4237;47.030;15.396;2023-02-04T07:04:49;5.20;99.90
8400;DHT22;4237;47.030;15.396;2023-02-04T07:07:18;5.20;99.90
8400;DHT22;4237;47.030;15.396;2023-02-04T07:09:46;5.20;99.90
8400;DHT22;4237;47.030;15.396;2023-02-04T07:12:15;5.10;99.90
8400;DHT22;4237;47.030;15.396;2023-02-04T07:14:43;5.00;99.90
8400;DHT22;4237;47.030;15.396;2023-02-04T07:17:12;4.80;99.90
8400;DHT22;4237;47.030;15.396;2023-02-04T07:19:41;4.60;99.90
8400;DHT22;4237;47.030;15.396;2023-02-04T07:22:11;4.60;99.90
8400;DHT22;4237;47.030;15.396;2023-02-04T07:24:39;4.50;99.90
8400;DHT22;4237;47.030;15.396;2023-02-04T07:27:09;4.40;99.90
8400;DHT22;4237;47.030;15.396;2023-02-04T07:29:37;4.20;99.90
8400;DHT22;4237;47.030;15.396;2023-02-04T07:32:06;4.10;99.90
8400;DHT22;4237;47.030;15.396;2023-02-04T07:34:35;3.90;99.90
8400;DHT22;4237;47.030;15.396;2023-02-04T07:37:03;3.80;99.90
8400;DHT22;4237;47.030;15.396;2023-02-04T07:39:32;3.60;99.90
8400;DHT22;4237;47.030;15.396;2023-02-04T07:42:00;3.50;99.90
8400;DHT22;4237;47.030;15.396;2023-02-04T07:44:29;3.50;99.90
8400;DHT22;4237;47.030;15.396;2023-02-04T07:46:58;3.50;99.90
8400;DHT22;4237;47.030;15.396;2023-02-04T07:49:27;3.70;99.90
8400;DHT22;4237;47.030;15.396;2023-02-04T07:51:55;4.10;99.90
8400;DHT22;4237;47.030;15.396;2023-02-04T07:54:24;4.50;99.90
8400;DHT22;4237;47.030;15.396;2023-02-04T07:56:53;6.50;99.90
8400;DHT22;4237;47.030;15.396;2023-02-04T07:59:21;7.20;99.90
8400;DHT22;4237;47.030;15.396;2023-02-04T08:01:50;6.40;99.90
8400;DHT22;4237;47.030;15.396;2023-02-04T08:04:18;5.90;99.90
8400;DHT22;4237;47.030;15.396;2023-02-04T08:06:47;6.90;99.90
8400;DHT22;4237;47.030;15.396;2023-02-04T08:09:15;9.10;99.90
8400;DHT22;4237;47.030;15.396;2023-02-04T08:11:44;8.70;99.90
8400;DHT22;4237;47.030;15.396;2023-02-04T08:14:12;7.60;99.90
8400;DHT22;4237;47.030;15.396;2023-02-04T08:16:41;6.30;99.90
8400;DHT22;4237;47.030;15.396;2023-02-04T08:19:10;6.20;99.90
8400;DHT22;4237;47.030;15.396;2023-02-04T08:21:39;8.00;99.90
8400;DHT22;4237;47.030;15.396;2023-02-04T08:24:07;9.80;99.90
8400;DHT22;4237;47.030;15.396;2023-02-04T08:26:36;11.20;99.90
8400;DHT22;4237;47.030;15.396;2023-02-04T08:29:04;11.50;99.90
8400;DHT22;4237;47.030;15.396;2023-02-04T08:31:34;10.90;99.90
8400;DHT22;4237;47.030;15.396;2023-02-04T08:34:04;10.90;99.90
8400;DHT22;4237;47.030;15.396;2023-02-04T08:36:33;11.20;99.90
8400;DHT22;4237;47.030;15.396;2023-02-04T08:39:02;11.00;99.90
8400;DHT22;4237;47.030;15.396;2023-02-04T08:41:31;13.80;99.90
8400;DHT22;4237;47.030;15.396;2023-02-04T08:44:00;17.10;99.90
8400;DHT22;4237;47.030;15.396;2023-02-04T08:46:29;18.70;99.90
8400;DHT22;4237;47.030;15.396;2023-02-04T08:48:57;19.90;99.90
8400;DHT22;4237;47.030;15.396;2023-02-04T08:51:26;21.30;99.90
8400;DHT22;4237;47.030;15.396;2023-02-04T08:53:54;22.80;98.20
8400;DHT22;4237;47.030;15.396;2023-02-04T08:56:23;22.90;94.30
8400;DHT22;4237;47.030;15.396;2023-02-04T08:58:53;22.30;89.00
8400;DHT22;4237;47.030;15.396;2023-02-04T09:01:22;21.10;85.50
8400;DHT22;4237;47.030;15.396;2023-02-04T09:03:50;20.20;88.30
8400;DHT22;4237;47.030;15.396;2023-02-04T09:06:20;19.40;85.60
8400;DHT22;4237;47.030;15.396;2023-02-04T09:08:48;17.60;86.70
8400;DHT22;4237;47.030;15.396;2023-02-04T09:11:18;17.60;88.50
8400;DHT22;4237;47.030;15.396;2023-02-04T09:13:47;18.00;89.20
8400;DHT22;4237;47.030;15.396;2023-02-04T09:16:16;15.60;90.40
8400;DHT22;4237;47.030;15.396;2023-02-04T09:18:45;15.40;93.50
8400;DHT22;4237;47.030;15.396;2023-02-04T09:21:14;14.70;92.60
8400;DHT22;4237;47.030;15.396;2023-02-04T09:23:43;14.30;93.90
8400;DHT22;4237;47.030;15.396;2023-02-04T09:26:13;12.40;97.20
8400;DHT22;4237;47.030;15.396;2023-02-04T09:28:42;13.40;98.90
8400;DHT22;4237;47.030;15.396;2023-02-04T09:31:10;15.60;94.70
8400;DHT22;4237;47.030;15.396;2023-02-04T09:33:39;14.90;91.80
8400;DHT22;4237;47.030;15.396;2023-02-04T09:36:08;15.30;94.90
8400;DHT22;4237;47.030;15.396;2023-02-04T09:38:36;18.00;91.70
8400;DHT22;4237;47.030;15.396;2023-02-04T09:41:07;16.90;89.40
8400;DHT22;4237;47.030;15.396;2023-02-04T09:43:38;17.50;86.30
8400;DHT22;4237;47.030;15.396;2023-02-04T09:46:21;16.70;87.20
8400;DHT22;4237;47.030;15.396;2023-02-04T09:48:51;14.30;90.60
8400;DHT22;4237;47.030;15.396;2023-02-04T09:51:22;13.10;93.80
8400;DHT22;4237;47.030;15.396;2023-02-04T09:53:54;14.40;92.00
8400;DHT22;4237;47.030;15.396;2023-02-04T09:56:25;13.70;90.00
8400;DHT22;4237;47.030;15.396;2023-02-04T09:58:53;14.90;91.70
8400;DHT22;4237;47.030;15.396;2023-02-04T10:01:22;16.20;87.90
8400;DHT22;4237;47.030;15.396;2023-02-04T10:03:50;16.20;85.20
8400;DHT22;4237;47.030;15.396;2023-02-04T10:06:20;17.00;87.00
8400;DHT22;4237;47.030;15.396;2023-02-04T10:08:51;16.70;83.70
8400;DHT22;4237;47.030;15.396;2023-02-04T10:11:21;17.70;83.30
8400;DHT22;4237;47.030;15.396;2023-02-04T10:13:53;16.70;85.60
8400;DHT22;4237;47.030;15.396;2023-02-04T10:16:30;16.80;83.30
8400;DHT22;4237;47.030;15.396;2023-02-04T10:19:01;15.20;89.30
8400;DHT22;4237;47.030;15.396;2023-02-04T10:21:32;15.30;91.30
8400;DHT22;4237;47.030;15.396;2023-02-04T10:24:06;13.60;92.70
8400;DHT22;4237;47.030;15.396;2023-02-04T10:26:34;12.20;94.90
8400;DHT22;4237;47.030;15.396;2023-02-04T10:29:05;13.10;95.90
8400;DHT22;4237;47.030;15.396;2023-02-04T10:31:37;11.80;97.00
8400;DHT22;4237;47.030;15.396;2023-02-04T10:34:18;10.70;99.90
8400;DHT22;4237;47.030;15.396;2023-02-04T10:36:54;11.10;99.90
8400;DHT22;4237;47.030;15.396;2023-02-04T10:39:29;11.20;99.90
8400;DHT22;4237;47.030;15.396;2023-02-04T10:41:59;9.80;99.90
8400;DHT22;4237;47.030;15.396;2023-02-04T10:44:33;11.60;99.90
8400;DHT22;4237;47.030;15.396;2023-02-04T10:47:22;11.90;99.90
8400;DHT22;4237;47.030;15.396;2023-02-04T10:49:56;10.70;99.90
8400;DHT22;4237;47.030;15.396;2023-02-04T10:52:33;11.90;99.80
8400;DHT22;4237;47.030;15.396;2023-02-04T10:55:01;12.00;98.90
8400;DHT22;4237;47.030;15.396;2023-02-04T10:57:32;11.20;99.50
8400;DHT22;4237;47.030;15.396;2023-02-04T11:00:04;13.30;98.60
8400;DHT22;4237;47.030;15.396;2023-02-04T11:05:25;11.70;98.20
8400;DHT22;4237;47.030;15.396;2023-02-04T11:07:50;11.80;98.40
8400;DHT22;4237;47.030;15.396;2023-02-04T11:10:26;12.70;96.00
8400;DHT22;4237;47.030;15.396;2023-02-04T11:15:49;11.30;95.10
8400;DHT22;4237;47.030;15.396;2023-02-04T11:20:55;11.20;93.80
8400;DHT22;4237;47.030;15.396;2023-02-04T11:23:30;11.40;92.20
8400;DHT22;4237;47.030;15.396;2023-02-04T11:26:30;12.20;90.90
8400;DHT22;4237;47.030;15.396;2023-02-04T11:29:05;12.60;86.40
8400;DHT22;4237;47.030;15.396;2023-02-04T11:31:38;14.10;82.00
8400;DHT22;4237;47.030;15.396;2023-02-04T11:34:11;13.50;76.40
8400;DHT22;4237;47.030;15.396;2023-02-04T11:37:03;14.20;77.50
8400;DHT22;4237;47.030;15.396;2023-02-04T11:39:40;15.30;72.30
8400;DHT22;4237;47.030;15.396;2023-02-04T11:44:52;14.90;72.10
8400;DHT22;4237;47.030;15.396;2023-02-04T11:47:23;16.20;71.20
8400;DHT22;4237;47.030;15.396;2023-02-04T11:49:56;15.90;66.00
8400;DHT22;4237;47.030;15.396;2023-02-04T11:52:24;15.70;65.60
8400;DHT22;4237;47.030;15.396;2023-02-04T11:54:55;15.80;66.50
8400;DHT22;4237;47.030;15.396;2023-02-04T11:57:24;15.10;64.90
8400;DHT22;4237;47.030;15.396;2023-02-04T11:59:53;16.20;66.60
8400;DHT22;4237;47.030;15.396;2023-02-04T12:02:24;15.50;66.00
8400;DHT22;4237;47.030;15.396;2023-02-04T12:04:57;15.90;65.80
8400;DHT22;4237;47.030;15.396;2023-02-04T12:07:28;17.80;66.40
8400;DHT22;4237;47.030;15.396;2023-02-04T12:09:58;18.20;64.80
8400;DHT22;4237;47.030;15.396;2023-02-04T12:12:29;18.30;62.30
8400;DHT22;4237;47.030;15.396;2023-02-04T12:15:08;18.30;63.90
8400;DHT22;4237;47.030;15.396;2023-02-04T12:17:34;18.70;63.30
8400;DHT22;4237;47.030;15.396;2023-02-04T12:20:03;18.20;64.60
8400;DHT22;4237;47.030;15.396;2023-02-04T12:22:31;17.70;63.50
8400;DHT22;4237;47.030;15.396;2023-02-04T12:25:00;16.00;64.50
8400;DHT22;4237;47.030;15.396;2023-02-04T12:27:28;16.80;65.20
8400;DHT22;4237;47.030;15.396;2023-02-04T12:29:57;16.50;63.60
8400;DHT22;4237;47.030;15.396;2023-02-04T12:32:25;15.80;63.60
8400;DHT22;4237;47.030;15.396;2023-02-04T12:34:54;16.40;65.00
8400;DHT22;4237;47.030;15.396;2023-02-04T12:37:23;15.40;63.80
8400;DHT22;4237;47.030;15.396;2023-02-04T12:39:51;14.20;64.00
8400;DHT22;4237;47.030;15.396;2023-02-04T12:42:20;13.60;67.70
8400;DHT22;4237;47.030;15.396;2023-02-04T12:44:48;13.20;68.60
8400;DHT22;4237;47.030;15.396;2023-02-04T12:47:17;13.70;69.20
8400;DHT22;4237;47.030;15.396;2023-02-04T12:49:46;14.00;67.60
8400;DHT22;4237;47.030;15.396;2023-02-04T12:52:14;13.50;68.20
8400;DHT22;4237;47.030;15.396;2023-02-04T12:54:43;13.70;68.30
8400;DHT22;4237;47.030;15.396;2023-02-04T12:57:12;13.70;67.50
8400;DHT22;4237;47.030;15.396;2023-02-04T12:59:42;14.90;67.30
8400;DHT22;4237;47.030;15.396;2023-02-04T13:02:11;15.70;66.50
8400;DHT22;4237;47.030;15.396;2023-02-04T13:04:39;15.40;66.60
8400;DHT22;4237;47.030;15.396;2023-02-04T13:07:08;15.40;68.40
8400;DHT22;4237;47.030;15.396;2023-02-04T13:13:00;14.50;67.20
8400;DHT22;4237;47.030;15.396;2023-02-04T13:15:29;13.70;68.10
8400;DHT22;4237;47.030;15.396;2023-02-04T13:17:58;12.60;69.60
8400;DHT22;4237;47.030;15.396;2023-02-04T13:20:26;11.70;74.10
8400;DHT22;4237;47.030;15.396;2023-02-04T13:22:55;12.10;75.40
8400;DHT22;4237;47.030;15.396;2023-02-04T13:25:24;11.80;76.20
8400;DHT22;4237;47.030;15.396;2023-02-04T13:27:52;11.40;79.30
8400;DHT22;4237;47.030;15.396;2023-02-04T13:30:21;10.70;81.00
8400;DHT22;4237;47.030;15.396;2023-02-04T13:32:50;9.90;84.00
8400;DHT22;4237;47.030;15.396;2023-02-04T13:35:19;9.30;87.00
8400;DHT22;4237;47.030;15.396;2023-02-04T13:37:47;9.00;90.30
8400;DHT22;4237;47.030;15.396;2023-02-04T13:40:16;8.80;92.50
8400;DHT22;4237;47.030;15.396;2023-02-04T13:42:45;8.90;92.60
8400;DHT22;4237;47.030;15.396;2023-02-04T13:45:13;8.40;92.30
8400;DHT22;4237;47.030;15.396;2023-02-04T13:47:43;8.10;93.20
8400;DHT22;4237;47.030;15.396;2023-02-04T13:50:11;8.20;93.60
8400;DHT22;4237;47.030;15.396;2023-02-04T13:52:40;8.40;92.80
8400;DHT22;4237;47.030;15.396;2023-02-04T13:55:08;8.00;94.10
8400;DHT22;4237;47.030;15.396;2023-02-04T13:57:37;7.90;95.10
8400;DHT22;4237;47.030;15.396;2023-02-04T14:00:07;7.90;94.10
8400;DHT22;4237;47.030;15.396;2023-02-04T14:02:36;7.80;95.40
8400;DHT22;4237;47.030;15.396;2023-02-04T14:05:05;7.90;95.50
8400;DHT22;4237;47.030;15.396;2023-02-04T14:07:33;7.70;95.90
8400;DHT22;4237;47.030;15.396;2023-02-04T14:10:03;7.90;96.10
8400;DHT22;4237;47.030;15.396;2023-02-04T14:12:32;8.10;96.20
8400;DHT22;4237;47.030;15.396;2023-02-04T14:15:01;7.90;95.30
8400;DHT22;4237;47.030;15.396;2023-02-04T14:17:30;8.50;95.40
8400;DHT22;4237;47.030;15.396;2023-02-04T14:19:59;9.20;93.20
8400;DHT22;4237;47.030;15.396;2023-02-04T14:22:27;9.80;91.80
8400;DHT22;4237;47.030;15.396;2023-02-04T14:24:56;9.50;92.20
8400;DHT22;4237;47.030;15.396;2023-02-04T14:27:25;9.50;92.70
8400;DHT22;4237;47.030;15.396;2023-02-04T14:29:53;9.30;92.80
8400;DHT22;4237;47.030;15.396;2023-02-04T14:32:22;9.00;93.40
8400;DHT22;4237;47.030;15.396;2023-02-04T14:34:51;8.90;92.80
8400;DHT22;4237;47.030;15.396;2023-02-04T14:37:19;7.60;94.90
8400;DHT22;4237;47.030;15.396;2023-02-04T14:39:48;7.00;97.10
8400;DHT22;4237;47.030;15.396;2023-02-04T14:42:17;6.80;97.80
8400;DHT22;4237;47.030;15.396;2023-02-04T14:44:45;6.50;98.10
8400;DHT22;4237;47.030;15.396;2023-02-04T14:47:14;6.40;98.80
8400;DHT22;4237;47.030;15.396;2023-02-04T14:49:43;6.40;99.00
8400;DHT22;4237;47.030;15.396;2023-02-04T14:52:11;6.30;99.30
8400;DHT22;4237;47.030;15.396;2023-02-04T14:54:41;6.20;99.90
8400;DHT22;4237;47.030;15.396;2023-02-04T14:57:10;5.90;99.90
8400;DHT22;4237;47.030;15.396;2023-02-04T14:59:38;5.70;99.90
8400;DHT22;4237;47.030;15.396;2023-02-04T15:02:09;5.40;99.90
8400;DHT22;4237;47.030;15.396;2023-02-04T15:04:38;5.20;99.90
8400;DHT22;4237;47.030;15.396;2023-02-04T15:07:07;5.00;99.90
8400;DHT22;4237;47.030;15.396;2023-02-04T15:09:36;4.90;99.90
8400;DHT22;4237;47.030;15.396;2023-02-04T15:12:05;4.70;99.90
8400;DHT22;4237;47.030;15.396;2023-02-04T15:14:34;4.60;99.90
8400;DHT22;4237;47.030;15.396;2023-02-04T15:17:03;4.50;99.90
8400;DHT22;4237;47.030;15.396;2023-02-04T15:19:31;4.40;99.90
8400;DHT22;4237;47.030;15.396;2023-02-04T15:22:00;4.20;99.90
8400;DHT22;4237;47.030;15.396;2023-02-04T15:24:29;4.20;99.90
8400;DHT22;4237;47.030;15.396;2023-02-04T15:26:57;4.10;99.90
8400;DHT22;4237;47.030;15.396;2023-02-04T15:29:26;4.00;99.90
8400;DHT22;4237;47.030;15.396;2023-02-04T15:31:56;3.90;99.90
8400;DHT22;4237;47.030;15.396;2023-02-04T15:34:25;3.80;99.90
8400;DHT22;4237;47.030;15.396;2023-02-04T15:36:54;3.70;99.90
8400;DHT22;4237;47.030;15.396;2023-02-04T15:39:22;3.60;99.90
8400;DHT22;4237;47.030;15.396;2023-02-04T15:41:53;3.50;99.90
8400;DHT22;4237;47.030;15.396;2023-02-04T15:44:21;3.40;99.90
8400;DHT22;4237;47.030;15.396;2023-02-04T15:46:50;3.40;99.90
8400;DHT22;4237;47.030;15.396;2023-02-04T15:49:21;3.40;99.90
8400;DHT22;4237;47.030;15.396;2023-02-04T15:51:49;3.30;99.90
8400;DHT22;4237;47.030;15.396;2023-02-04T15:54:18;3.20;99.90
8400;DHT22;4237;47.030;15.396;2023-02-04T15:56:47;3.20;99.90
8400;DHT22;4237;47.030;15.396;2023-02-04T15:59:16;3.10;99.90
8400;DHT22;4237;47.030;15.396;2023-02-04T16:01:45;3.10;99.90
8400;DHT22;4237;47.030;15.396;2023-02-04T16:04:13;3.10;99.90
8400;DHT22;4237;47.030;15.396;2023-02-04T16:06:42;3.00;99.90
8400;DHT22;4237;47.030;15.396;2023-02-04T16:09:11;3.00;99.90
8400;DHT22;4237;47.030;15.396;2023-02-04T16:11:39;3.00;99.90
8400;DHT22;4237;47.030;15.396;2023-02-04T16:14:08;2.90;99.90
8400;DHT22;4237;47.030;15.396;2023-02-04T16:16:37;2.80;99.90
8400;DHT22;4237;47.030;15.396;2023-02-04T16:19:06;2.90;99.90
8400;DHT22;4237;47.030;15.396;2023-02-04T16:21:34;2.80;99.90
8400;DHT22;4237;47.030;15.396;2023-02-04T16:24:04;2.80;99.90
8400;DHT22;4237;47.030;15.396;2023-02-04T16:26:33;2.70;99.90
8400;DHT22;4237;47.030;15.396;2023-02-04T16:29:03;2.70;99.90